sensor_id;sensor_type;location;lat;lon;timestamp;P1;durP1;ratioP1;P2;durP2;ratioP2
29546;SDS011;40782;47.264;11.330;2022-12-04T00:02:24;24.77;;;17.30;;
29546;SDS011;40782;47.264;11.330;2022-12-04T00:04:51;27.85;;;18.60;;
29546;SDS011;40782;47.264;11.330;2022-12-04T00:07:18;27.33;;;18.23;;
29546;SDS011;40782;47.264;11.330;2022-12-04T00:09:45;28.20;;;17.83;;
29546;SDS011;40782;47.264;11.330;2022-12-04T00:12:12;29.52;;;18.85;;
29546;SDS011;40782;47.264;11.330;2022-12-04T00:14:39;27.75;;;18.23;;
29546;SDS011;40782;47.264;11.330;2022-12-04T00:17:07;28.92;;;18.38;;
29546;SDS011;40782;47.264;11.330;2022-12-04T00:19:35;27.15;;;16.05;;
29546;SDS011;40782;47.264;11.330;2022-12-04T00:22:03;25.23;;;17.92;;
29546;SDS011;40782;47.264;11.330;2022-12-04T00:24:30;23.67;;;16.83;;
29546;SDS011;40782;47.264;11.330;2022-12-04T00:26:57;24.52;;;17.02;;
29546;SDS011;40782;47.264;11.330;2022-12-04T00:29:24;23.60;;;16.38;;
29546;SDS011;40782;47.264;11.330;2022-12-04T00:31:51;23.15;;;16.63;;
29546;SDS011;40782;47.264;11.330;2022-12-04T00:34:18;25.42;;;17.27;;
29546;SDS011;40782;47.264;11.330;2022-12-04T00:36:48;25.92;;;17.65;;
29546;SDS011;40782;47.264;11.330;2022-12-04T00:39:15;24.02;;;17.88;;
29546;SDS011;40782;47.264;11.330;2022-12-04T00:41:42;25.55;;;16.83;;
29546;SDS011;40782;47.264;11.330;2022-12-04T00:44:09;25.50;;;18.10;;
29546;SDS011;40782;47.264;11.330;2022-12-04T00:46:36;22.35;;;16.75;;
29546;SDS011;40782;47.264;11.330;2022-12-04T00:49:04;25.35;;;16.75;;
29546;SDS011;40782;47.264;11.330;2022-12-04T00:51:31;24.98;;;16.83;;
29546;SDS011;40782;47.264;11.330;2022-12-04T00:53:59;21.98;;;15.45;;
29546;SDS011;40782;47.264;11.330;2022-12-04T00:56:27;24.67;;;16.63;;
29546;SDS011;40782;47.264;11.330;2022-12-04T00:58:55;22.98;;;16.30;;
29546;SDS011;40782;47.264;11.330;2022-12-04T01:01:24;26.33;;;16.65;;
29546;SDS011;40782;47.264;11.330;2022-12-04T01:03:52;24.75;;;16.58;;
29546;SDS011;40782;47.264;11.330;2022-12-04T01:06:21;20.33;;;13.88;;
29546;SDS011;40782;47.264;11.330;2022-12-04T01:08:49;20.13;;;15.52;;
29546;SDS011;40782;47.264;11.330;2022-12-04T01:11:19;18.25;;;14.40;;
29546;SDS011;40782;47.264;11.330;2022-12-04T01:13:47;22.27;;;15.15;;
29546;SDS011;40782;47.264;11.330;2022-12-04T01:16:15;21.95;;;15.13;;
29546;SDS011;40782;47.264;11.330;2022-12-04T01:18:44;21.05;;;14.70;;
29546;SDS011;40782;47.264;11.330;2022-12-04T01:21:11;22.15;;;15.55;;
29546;SDS011;40782;47.264;11.330;2022-12-04T01:23:38;22.52;;;15.40;;
29546;SDS011;40782;47.264;11.330;2022-12-04T01:26:06;27.15;;;15.88;;
29546;SDS011;40782;47.264;11.330;2022-12-04T01:28:34;21.25;;;14.32;;
29546;SDS011;40782;47.264;11.330;2022-12-04T01:31:02;18.33;;;14.43;;
29546;SDS011;40782;47.264;11.330;2022-12-04T01:33:32;24.92;;;14.20;;
29546;SDS011;40782;47.264;11.330;2022-12-04T01:36:00;20.23;;;14.27;;
29546;SDS011;40782;47.264;11.330;2022-12-04T01:38:30;21.15;;;15.18;;
29546;SDS011;40782;47.264;11.330;2022-12-04T01:40:57;19.65;;;13.75;;
29546;SDS011;40782;47.264;11.330;2022-12-04T01:43:24;19.80;;;14.70;;
29546;SDS011;40782;47.264;11.330;2022-12-04T01:45:56;21.45;;;14.18;;
29546;SDS011;40782;47.264;11.330;2022-12-04T01:48:26;17.73;;;12.88;;
29546;SDS011;40782;47.264;11.330;2022-12-04T01:50:58;19.53;;;13.27;;
29546;SDS011;40782;47.264;11.330;2022-12-04T01:53:30;19.05;;;13.20;;
29546;SDS011;40782;47.264;11.330;2022-12-04T01:55:58;20.13;;;13.38;;
29546;SDS011;40782;47.264;11.330;2022-12-04T01:58:27;18.65;;;13.95;;
29546;SDS011;40782;47.264;11.330;2022-12-04T02:00:59;20.93;;;13.40;;
29546;SDS011;40782;47.264;11.330;2022-12-04T02:03:29;19.20;;;13.30;;
29546;SDS011;40782;47.264;11.330;2022-12-04T02:05:56;16.60;;;11.40;;
29546;SDS011;40782;47.264;11.330;2022-12-04T02:08:24;19.65;;;11.82;;
29546;SDS011;40782;47.264;11.330;2022-12-04T02:10:54;16.52;;;11.57;;
29546;SDS011;40782;47.264;11.330;2022-12-04T02:13:30;17.70;;;12.50;;
29546;SDS011;40782;47.264;11.330;2022-12-04T02:16:05;17.17;;;12.07;;
29546;SDS011;40782;47.264;11.330;2022-12-04T02:18:39;18.73;;;12.15;;
29546;SDS011;40782;47.264;11.330;2022-12-04T02:21:13;16.90;;;12.18;;
29546;SDS011;40782;47.264;11.330;2022-12-04T02:23:54;16.40;;;11.68;;
29546;SDS011;40782;47.264;11.330;2022-12-04T02:26:43;21.17;;;13.10;;
29546;SDS011;40782;47.264;11.330;2022-12-04T02:29:19;16.63;;;12.43;;
29546;SDS011;40782;47.264;11.330;2022-12-04T02:31:54;15.85;;;12.43;;
29546;SDS011;40782;47.264;11.330;2022-12-04T02:34:25;20.08;;;13.05;;
29546;SDS011;40782;47.264;11.330;2022-12-04T02:36:56;15.60;;;11.65;;
29546;SDS011;40782;47.264;11.330;2022-12-04T02:39:27;17.20;;;11.45;;
29546;SDS011;40782;47.264;11.330;2022-12-04T02:42:01;19.02;;;12.13;;
29546;SDS011;40782;47.264;11.330;2022-12-04T02:47:01;18.08;;;12.05;;
29546;SDS011;40782;47.264;11.330;2022-12-04T02:49:31;18.67;;;12.85;;
29546;SDS011;40782;47.264;11.330;2022-12-04T02:52:05;18.83;;;11.93;;
29546;SDS011;40782;47.264;11.330;2022-12-04T02:54:37;16.80;;;12.40;;
29546;SDS011;40782;47.264;11.330;2022-12-04T02:57:07;17.15;;;12.30;;
29546;SDS011;40782;47.264;11.330;2022-12-04T02:59:41;16.88;;;11.73;;
29546;SDS011;40782;47.264;11.330;2022-12-04T03:02:12;16.63;;;11.73;;
29546;SDS011;40782;47.264;11.330;2022-12-04T03:04:44;18.92;;;12.25;;
29546;SDS011;40782;47.264;11.330;2022-12-04T03:07:16;15.75;;;11.50;;
29546;SDS011;40782;47.264;11.330;2022-12-04T03:09:50;17.15;;;11.90;;
29546;SDS011;40782;47.264;11.330;2022-12-04T03:12:21;16.15;;;11.32;;
29546;SDS011;40782;47.264;11.330;2022-12-04T03:14:55;16.30;;;12.10;;
29546;SDS011;40782;47.264;11.330;2022-12-04T03:17:26;17.00;;;11.52;;
29546;SDS011;40782;47.264;11.330;2022-12-04T03:19:57;17.50;;;11.38;;
29546;SDS011;40782;47.264;11.330;2022-12-04T03:22:27;18.47;;;11.83;;
29546;SDS011;40782;47.264;11.330;2022-12-04T03:24:57;17.92;;;11.25;;
29546;SDS011;40782;47.264;11.330;2022-12-04T03:27:25;15.60;;;10.82;;
29546;SDS011;40782;47.264;11.330;2022-12-04T03:30:00;16.35;;;10.32;;
29546;SDS011;40782;47.264;11.330;2022-12-04T03:32:30;16.27;;;11.07;;
29546;SDS011;40782;47.264;11.330;2022-12-04T03:35:02;17.50;;;11.07;;
29546;SDS011;40782;47.264;11.330;2022-12-04T03:37:35;15.63;;;10.63;;
29546;SDS011;40782;47.264;11.330;2022-12-04T03:40:08;13.90;;;9.98;;
29546;SDS011;40782;47.264;11.330;2022-12-04T03:42:41;14.82;;;9.88;;
29546;SDS011;40782;47.264;11.330;2022-12-04T03:45:16;12.60;;;9.80;;
29546;SDS011;40782;47.264;11.330;2022-12-04T03:47:49;14.13;;;10.27;;
29546;SDS011;40782;47.264;11.330;2022-12-04T03:50:20;13.73;;;10.18;;
29546;SDS011;40782;47.264;11.330;2022-12-04T03:52:57;12.07;;;9.25;;
29546;SDS011;40782;47.264;11.330;2022-12-04T03:55:31;13.18;;;9.88;;
29546;SDS011;40782;47.264;11.330;2022-12-04T03:58:05;15.68;;;9.50;;
29546;SDS011;40782;47.264;11.330;2022-12-04T04:00:38;14.50;;;9.95;;
29546;SDS011;40782;47.264;11.330;2022-12-04T04:03:09;12.90;;;9.75;;
29546;SDS011;40782;47.264;11.330;2022-12-04T04:05:40;13.68;;;9.40;;
29546;SDS011;40782;47.264;11.330;2022-12-04T04:08:10;14.75;;;10.02;;
29546;SDS011;40782;47.264;11.330;2022-12-04T04:10:52;13.90;;;9.13;;
29546;SDS011;40782;47.264;11.330;2022-12-04T04:13:26;13.82;;;9.50;;
29546;SDS011;40782;47.264;11.330;2022-12-04T04:16:18;11.77;;;8.80;;
29546;SDS011;40782;47.264;11.330;2022-12-04T04:19:05;12.30;;;8.43;;
29546;SDS011;40782;47.264;11.330;2022-12-04T04:21:52;11.98;;;8.88;;
29546;SDS011;40782;47.264;11.330;2022-12-04T04:24:46;12.88;;;9.05;;
29546;SDS011;40782;47.264;11.330;2022-12-04T04:27:17;15.35;;;9.50;;
29546;SDS011;40782;47.264;11.330;2022-12-04T04:29:44;15.65;;;9.55;;
29546;SDS011;40782;47.264;11.330;2022-12-04T04:32:13;14.80;;;10.32;;
29546;SDS011;40782;47.264;11.330;2022-12-04T04:34:49;12.98;;;10.02;;
29546;SDS011;40782;47.264;11.330;2022-12-04T04:37:24;13.25;;;10.18;;
29546;SDS011;40782;47.264;11.330;2022-12-04T04:40:06;13.75;;;10.05;;
29546;SDS011;40782;47.264;11.330;2022-12-04T04:42:40;14.77;;;10.23;;
29546;SDS011;40782;47.264;11.330;2022-12-04T04:45:14;14.18;;;9.55;;
29546;SDS011;40782;47.264;11.330;2022-12-04T04:47:47;14.43;;;9.98;;
29546;SDS011;40782;47.264;11.330;2022-12-04T04:50:18;15.20;;;9.68;;
29546;SDS011;40782;47.264;11.330;2022-12-04T04:52:47;14.00;;;9.88;;
29546;SDS011;40782;47.264;11.330;2022-12-04T04:55:18;12.55;;;9.57;;
29546;SDS011;40782;47.264;11.330;2022-12-04T04:57:47;11.45;;;8.95;;
29546;SDS011;40782;47.264;11.330;2022-12-04T05:00:15;14.77;;;9.15;;
29546;SDS011;40782;47.264;11.330;2022-12-04T05:02:44;13.85;;;9.48;;
29546;SDS011;40782;47.264;11.330;2022-12-04T05:05:14;11.77;;;9.07;;
29546;SDS011;40782;47.264;11.330;2022-12-04T05:07:41;12.65;;;9.02;;
29546;SDS011;40782;47.264;11.330;2022-12-04T05:10:09;13.02;;;8.73;;
29546;SDS011;40782;47.264;11.330;2022-12-04T05:12:36;11.27;;;8.68;;
29546;SDS011;40782;47.264;11.330;2022-12-04T05:15:03;11.18;;;8.52;;
29546;SDS011;40782;47.264;11.330;2022-12-04T05:17:33;10.45;;;7.88;;
29546;SDS011;40782;47.264;11.330;2022-12-04T05:20:01;11.98;;;8.52;;
29546;SDS011;40782;47.264;11.330;2022-12-04T05:22:29;13.63;;;8.52;;
29546;SDS011;40782;47.264;11.330;2022-12-04T05:24:58;12.45;;;8.63;;
29546;SDS011;40782;47.264;11.330;2022-12-04T05:27:26;12.93;;;8.23;;
29546;SDS011;40782;47.264;11.330;2022-12-04T05:29:55;12.27;;;8.68;;
29546;SDS011;40782;47.264;11.330;2022-12-04T05:32:24;11.25;;;7.65;;
29546;SDS011;40782;47.264;11.330;2022-12-04T05:34:53;11.98;;;9.07;;
29546;SDS011;40782;47.264;11.330;2022-12-04T05:37:23;15.63;;;9.75;;
29546;SDS011;40782;47.264;11.330;2022-12-04T05:39:50;14.82;;;9.60;;
29546;SDS011;40782;47.264;11.330;2022-12-04T05:42:18;13.48;;;8.48;;
29546;SDS011;40782;47.264;11.330;2022-12-04T05:44:45;11.77;;;8.38;;
29546;SDS011;40782;47.264;11.330;2022-12-04T05:47:13;11.20;;;8.57;;
29546;SDS011;40782;47.264;11.330;2022-12-04T05:49:40;11.93;;;8.27;;
29546;SDS011;40782;47.264;11.330;2022-12-04T05:52:08;12.50;;;8.05;;
29546;SDS011;40782;47.264;11.330;2022-12-04T05:54:37;11.38;;;8.82;;
29546;SDS011;40782;47.264;11.330;2022-12-04T05:57:04;13.43;;;9.10;;
29546;SDS011;40782;47.264;11.330;2022-12-04T05:59:31;15.35;;;10.23;;
29546;SDS011;40782;47.264;11.330;2022-12-04T06:01:58;29.23;;;17.25;;
29546;SDS011;40782;47.264;11.330;2022-12-04T06:04:25;92.88;;;47.75;;
29546;SDS011;40782;47.264;11.330;2022-12-04T06:06:53;36.00;;;20.40;;
29546;SDS011;40782;47.264;11.330;2022-12-04T06:09:20;18.70;;;12.93;;
29546;SDS011;40782;47.264;11.330;2022-12-04T06:11:49;15.52;;;10.88;;
29546;SDS011;40782;47.264;11.330;2022-12-04T06:14:16;13.93;;;10.48;;
29546;SDS011;40782;47.264;11.330;2022-12-04T06:16:44;15.05;;;10.35;;
29546;SDS011;40782;47.264;11.330;2022-12-04T06:19:13;14.00;;;9.98;;
29546;SDS011;40782;47.264;11.330;2022-12-04T06:21:42;14.95;;;10.85;;
29546;SDS011;40782;47.264;11.330;2022-12-04T06:24:11;11.65;;;9.30;;
29546;SDS011;40782;47.264;11.330;2022-12-04T06:26:40;15.90;;;10.25;;
29546;SDS011;40782;47.264;11.330;2022-12-04T06:29:09;11.88;;;9.35;;
29546;SDS011;40782;47.264;11.330;2022-12-04T06:31:37;14.20;;;10.50;;
29546;SDS011;40782;47.264;11.330;2022-12-04T06:34:05;12.57;;;10.07;;
29546;SDS011;40782;47.264;11.330;2022-12-04T06:36:34;12.05;;;9.48;;
29546;SDS011;40782;47.264;11.330;2022-12-04T06:39:01;15.48;;;11.05;;
29546;SDS011;40782;47.264;11.330;2022-12-04T06:41:29;13.10;;;9.73;;
29546;SDS011;40782;47.264;11.330;2022-12-04T06:43:56;14.25;;;9.50;;
29546;SDS011;40782;47.264;11.330;2022-12-04T06:46:26;10.15;;;8.55;;
29546;SDS011;40782;47.264;11.330;2022-12-04T06:48:55;15.10;;;9.77;;
29546;SDS011;40782;47.264;11.330;2022-12-04T06:51:23;12.25;;;9.77;;
29546;SDS011;40782;47.264;11.330;2022-12-04T06:53:52;13.93;;;9.77;;
29546;SDS011;40782;47.264;11.330;2022-12-04T06:56:20;14.32;;;9.43;;
29546;SDS011;40782;47.264;11.330;2022-12-04T06:58:49;14.35;;;10.32;;
29546;SDS011;40782;47.264;11.330;2022-12-04T07:01:19;14.63;;;9.63;;
29546;SDS011;40782;47.264;11.330;2022-12-04T07:03:49;11.35;;;8.50;;
29546;SDS011;40782;47.264;11.330;2022-12-04T07:06:18;13.85;;;10.07;;
29546;SDS011;40782;47.264;11.330;2022-12-04T07:08:47;13.68;;;9.60;;
29546;SDS011;40782;47.264;11.330;2022-12-04T07:11:16;10.90;;;8.82;;
29546;SDS011;40782;47.264;11.330;2022-12-04T07:13:43;10.80;;;8.38;;
29546;SDS011;40782;47.264;11.330;2022-12-04T07:16:13;10.25;;;8.30;;
29546;SDS011;40782;47.264;11.330;2022-12-04T07:18:41;9.93;;;8.02;;
29546;SDS011;40782;47.264;11.330;2022-12-04T07:21:14;11.48;;;7.75;;
29546;SDS011;40782;47.264;11.330;2022-12-04T07:23:43;11.25;;;8.15;;
29546;SDS011;40782;47.264;11.330;2022-12-04T07:26:11;12.48;;;7.82;;
29546;SDS011;40782;47.264;11.330;2022-12-04T07:28:39;11.73;;;8.95;;
29546;SDS011;40782;47.264;11.330;2022-12-04T07:31:09;11.05;;;8.77;;
29546;SDS011;40782;47.264;11.330;2022-12-04T07:33:39;9.65;;;8.25;;
29546;SDS011;40782;47.264;11.330;2022-12-04T07:36:07;11.73;;;8.43;;
29546;SDS011;40782;47.264;11.330;2022-12-04T07:38:37;13.37;;;9.47;;
29546;SDS011;40782;47.264;11.330;2022-12-04T07:41:05;11.25;;;8.13;;
29546;SDS011;40782;47.264;11.330;2022-12-04T07:43:33;13.68;;;9.40;;
29546;SDS011;40782;47.264;11.330;2022-12-04T07:46:03;13.90;;;10.63;;
29546;SDS011;40782;47.264;11.330;2022-12-04T07:48:31;15.25;;;10.43;;
29546;SDS011;40782;47.264;11.330;2022-12-04T07:51:03;15.02;;;10.85;;
29546;SDS011;40782;47.264;11.330;2022-12-04T07:53:33;15.48;;;10.90;;
29546;SDS011;40782;47.264;11.330;2022-12-04T07:56:01;16.58;;;12.23;;
29546;SDS011;40782;47.264;11.330;2022-12-04T07:58:29;15.80;;;11.40;;
29546;SDS011;40782;47.264;11.330;2022-12-04T08:01:03;17.63;;;12.10;;
29546;SDS011;40782;47.264;11.330;2022-12-04T08:03:31;16.73;;;11.88;;
29546;SDS011;40782;47.264;11.330;2022-12-04T08:05:59;14.77;;;10.48;;
29546;SDS011;40782;47.264;11.330;2022-12-04T08:08:26;17.38;;;10.88;;
29546;SDS011;40782;47.264;11.330;2022-12-04T08:10:55;13.18;;;10.05;;
29546;SDS011;40782;47.264;11.330;2022-12-04T08:13:22;12.50;;;9.70;;
29546;SDS011;40782;47.264;11.330;2022-12-04T08:15:49;16.08;;;10.63;;
29546;SDS011;40782;47.264;11.330;2022-12-04T08:18:16;12.68;;;10.25;;
29546;SDS011;40782;47.264;11.330;2022-12-04T08:20:43;11.80;;;9.65;;
29546;SDS011;40782;47.264;11.330;2022-12-04T08:23:10;12.40;;;9.18;;
29546;SDS011;40782;47.264;11.330;2022-12-04T08:25:38;11.65;;;9.00;;
29546;SDS011;40782;47.264;11.330;2022-12-04T08:28:07;10.85;;;8.88;;
29546;SDS011;40782;47.264;11.330;2022-12-04T08:30:34;10.82;;;9.07;;
29546;SDS011;40782;47.264;11.330;2022-12-04T08:33:01;12.00;;;9.30;;
29546;SDS011;40782;47.264;11.330;2022-12-04T08:35:28;12.43;;;8.93;;
29546;SDS011;40782;47.264;11.330;2022-12-04T08:37:55;15.20;;;9.32;;
29546;SDS011;40782;47.264;11.330;2022-12-04T08:40:23;12.27;;;8.80;;
29546;SDS011;40782;47.264;11.330;2022-12-04T08:42:50;10.77;;;8.25;;
29546;SDS011;40782;47.264;11.330;2022-12-04T08:45:19;11.57;;;8.80;;
29546;SDS011;40782;47.264;11.330;2022-12-04T08:47:46;10.68;;;8.63;;
29546;SDS011;40782;47.264;11.330;2022-12-04T08:50:13;10.02;;;8.68;;
29546;SDS011;40782;47.264;11.330;2022-12-04T08:52:40;11.27;;;9.25;;
29546;SDS011;40782;47.264;11.330;2022-12-04T08:55:08;14.18;;;9.20;;
29546;SDS011;40782;47.264;11.330;2022-12-04T08:57:35;11.25;;;9.52;;
29546;SDS011;40782;47.264;11.330;2022-12-04T09:00:02;13.45;;;9.52;;
29546;SDS011;40782;47.264;11.330;2022-12-04T09:02:32;11.65;;;9.27;;
29546;SDS011;40782;47.264;11.330;2022-12-04T09:04:59;12.07;;;8.40;;
29546;SDS011;40782;47.264;11.330;2022-12-04T09:07:26;11.27;;;7.68;;
29546;SDS011;40782;47.264;11.330;2022-12-04T09:09:53;10.57;;;7.57;;
29546;SDS011;40782;47.264;11.330;2022-12-04T09:12:20;9.70;;;7.30;;
29546;SDS011;40782;47.264;11.330;2022-12-04T09:14:47;9.27;;;7.70;;
29546;SDS011;40782;47.264;11.330;2022-12-04T09:17:15;9.98;;;7.68;;
29546;SDS011;40782;47.264;11.330;2022-12-04T09:19:43;11.98;;;7.85;;
29546;SDS011;40782;47.264;11.330;2022-12-04T09:22:10;14.10;;;7.45;;
29546;SDS011;40782;47.264;11.330;2022-12-04T09:24:38;9.48;;;7.18;;
29546;SDS011;40782;47.264;11.330;2022-12-04T09:27:05;10.63;;;7.38;;
29546;SDS011;40782;47.264;11.330;2022-12-04T09:29:32;8.45;;;6.53;;
29546;SDS011;40782;47.264;11.330;2022-12-04T09:31:59;9.50;;;7.03;;
29546;SDS011;40782;47.264;11.330;2022-12-04T09:34:26;12.88;;;7.20;;
29546;SDS011;40782;47.264;11.330;2022-12-04T09:36:55;9.77;;;6.25;;
29546;SDS011;40782;47.264;11.330;2022-12-04T09:39:22;9.75;;;5.85;;
29546;SDS011;40782;47.264;11.330;2022-12-04T09:41:53;8.95;;;6.70;;
29546;SDS011;40782;47.264;11.330;2022-12-04T09:44:33;8.63;;;6.57;;
29546;SDS011;40782;47.264;11.330;2022-12-04T09:47:05;9.02;;;6.80;;
29546;SDS011;40782;47.264;11.330;2022-12-04T09:49:40;9.52;;;7.55;;
29546;SDS011;40782;47.264;11.330;2022-12-04T09:52:15;11.48;;;8.77;;
29546;SDS011;40782;47.264;11.330;2022-12-04T09:54:51;10.95;;;8.85;;
29546;SDS011;40782;47.264;11.330;2022-12-04T09:57:21;13.65;;;9.63;;
29546;SDS011;40782;47.264;11.330;2022-12-04T09:59:55;13.35;;;10.15;;
29546;SDS011;40782;47.264;11.330;2022-12-04T10:02:30;14.20;;;10.88;;
29546;SDS011;40782;47.264;11.330;2022-12-04T10:05:02;13.90;;;10.45;;
29546;SDS011;40782;47.264;11.330;2022-12-04T10:07:32;15.05;;;10.90;;
29546;SDS011;40782;47.264;11.330;2022-12-04T10:10:12;12.10;;;9.60;;
29546;SDS011;40782;47.264;11.330;2022-12-04T10:12:47;10.90;;;9.30;;
29546;SDS011;40782;47.264;11.330;2022-12-04T10:15:25;13.90;;;9.23;;
29546;SDS011;40782;47.264;11.330;2022-12-04T10:18:08;10.57;;;7.78;;
29546;SDS011;40782;47.264;11.330;2022-12-04T10:20:46;11.20;;;8.02;;
29546;SDS011;40782;47.264;11.330;2022-12-04T10:23:29;11.77;;;8.03;;
29546;SDS011;40782;47.264;11.330;2022-12-04T10:26:08;15.02;;;8.38;;
29546;SDS011;40782;47.264;11.330;2022-12-04T10:28:41;11.50;;;8.68;;
29546;SDS011;40782;47.264;11.330;2022-12-04T10:31:13;9.93;;;8.32;;
29546;SDS011;40782;47.264;11.330;2022-12-04T10:33:41;13.10;;;8.80;;
29546;SDS011;40782;47.264;11.330;2022-12-04T10:36:12;12.68;;;8.85;;
29546;SDS011;40782;47.264;11.330;2022-12-04T10:38:48;10.48;;;8.32;;
29546;SDS011;40782;47.264;11.330;2022-12-04T10:41:23;9.77;;;7.70;;
29546;SDS011;40782;47.264;11.330;2022-12-04T10:43:52;8.43;;;7.30;;
29546;SDS011;40782;47.264;11.330;2022-12-04T10:46:20;9.18;;;8.00;;
29546;SDS011;40782;47.264;11.330;2022-12-04T10:48:49;19.20;;;11.98;;
29546;SDS011;40782;47.264;11.330;2022-12-04T10:51:20;10.73;;;8.38;;
29546;SDS011;40782;47.264;11.330;2022-12-04T10:53:50;11.95;;;8.15;;
29546;SDS011;40782;47.264;11.330;2022-12-04T10:56:18;11.90;;;8.07;;
29546;SDS011;40782;47.264;11.330;2022-12-04T10:58:56;9.57;;;8.13;;
29546;SDS011;40782;47.264;11.330;2022-12-04T11:01:25;8.60;;;7.43;;
29546;SDS011;40782;47.264;11.330;2022-12-04T11:03:58;11.10;;;7.65;;
29546;SDS011;40782;47.264;11.330;2022-12-04T11:06:28;13.65;;;8.10;;
29546;SDS011;40782;47.264;11.330;2022-12-04T11:08:57;9.13;;;7.45;;
29546;SDS011;40782;47.264;11.330;2022-12-04T11:11:27;10.60;;;7.88;;
29546;SDS011;40782;47.264;11.330;2022-12-04T11:13:59;12.85;;;7.55;;
29546;SDS011;40782;47.264;11.330;2022-12-04T11:18:58;13.35;;;8.18;;
29546;SDS011;40782;47.264;11.330;2022-12-04T11:21:26;12.25;;;7.85;;
29546;SDS011;40782;47.264;11.330;2022-12-04T11:23:55;10.18;;;7.60;;
29546;SDS011;40782;47.264;11.330;2022-12-04T11:26:33;12.88;;;7.78;;
29546;SDS011;40782;47.264;11.330;2022-12-04T11:29:03;11.82;;;7.97;;
29546;SDS011;40782;47.264;11.330;2022-12-04T11:31:31;11.30;;;7.78;;
29546;SDS011;40782;47.264;11.330;2022-12-04T11:33:59;11.82;;;8.35;;
29546;SDS011;40782;47.264;11.330;2022-12-04T11:36:30;10.23;;;7.97;;
29546;SDS011;40782;47.264;11.330;2022-12-04T11:39:05;10.25;;;7.18;;
29546;SDS011;40782;47.264;11.330;2022-12-04T11:41:43;10.20;;;7.70;;
29546;SDS011;40782;47.264;11.330;2022-12-04T11:44:20;12.15;;;8.50;;
29546;SDS011;40782;47.264;11.330;2022-12-04T11:46:50;9.80;;;8.63;;
29546;SDS011;40782;47.264;11.330;2022-12-04T11:49:19;9.55;;;7.85;;
29546;SDS011;40782;47.264;11.330;2022-12-04T11:51:49;9.75;;;7.50;;
29546;SDS011;40782;47.264;11.330;2022-12-04T11:54:26;10.68;;;8.00;;
29546;SDS011;40782;47.264;11.330;2022-12-04T11:57:00;9.70;;;7.30;;
29546;SDS011;40782;47.264;11.330;2022-12-04T11:59:42;9.40;;;7.88;;
29546;SDS011;40782;47.264;11.330;2022-12-04T12:02:29;10.15;;;7.63;;
29546;SDS011;40782;47.264;11.330;2022-12-04T12:05:15;11.98;;;8.65;;
29546;SDS011;40782;47.264;11.330;2022-12-04T12:07:53;13.45;;;7.95;;
29546;SDS011;40782;47.264;11.330;2022-12-04T12:10:28;12.27;;;8.25;;
29546;SDS011;40782;47.264;11.330;2022-12-04T12:13:01;11.38;;;8.10;;
29546;SDS011;40782;47.264;11.330;2022-12-04T12:15:39;9.80;;;7.97;;
29546;SDS011;40782;47.264;11.330;2022-12-04T12:18:17;10.73;;;8.43;;
29546;SDS011;40782;47.264;11.330;2022-12-04T12:20:55;11.73;;;8.05;;
29546;SDS011;40782;47.264;11.330;2022-12-04T12:23:33;8.95;;;7.75;;
29546;SDS011;40782;47.264;11.330;2022-12-04T12:26:13;9.65;;;8.25;;
29546;SDS011;40782;47.264;11.330;2022-12-04T12:28:50;10.55;;;8.25;;
29546;SDS011;40782;47.264;11.330;2022-12-04T12:31:35;10.88;;;8.27;;
29546;SDS011;40782;47.264;11.330;2022-12-04T12:34:17;9.18;;;7.60;;
29546;SDS011;40782;47.264;11.330;2022-12-04T12:36:57;11.60;;;7.93;;
29546;SDS011;40782;47.264;11.330;2022-12-04T12:39:33;12.82;;;8.43;;
29546;SDS011;40782;47.264;11.330;2022-12-04T12:42:09;9.45;;;8.13;;
29546;SDS011;40782;47.264;11.330;2022-12-04T12:44:43;10.98;;;8.40;;
29546;SDS011;40782;47.264;11.330;2022-12-04T12:47:17;9.13;;;7.72;;
29546;SDS011;40782;47.264;11.330;2022-12-04T12:49:48;13.15;;;9.02;;
29546;SDS011;40782;47.264;11.330;2022-12-04T12:52:25;12.77;;;9.45;;
29546;SDS011;40782;47.264;11.330;2022-12-04T12:54:57;10.98;;;8.57;;
29546;SDS011;40782;47.264;11.330;2022-12-04T12:57:32;10.38;;;7.93;;
29546;SDS011;40782;47.264;11.330;2022-12-04T13:00:04;9.32;;;7.35;;
29546;SDS011;40782;47.264;11.330;2022-12-04T13:02:35;10.43;;;6.90;;
29546;SDS011;40782;47.264;11.330;2022-12-04T13:05:09;9.80;;;7.47;;
29546;SDS011;40782;47.264;11.330;2022-12-04T13:07:41;10.77;;;7.25;;
29546;SDS011;40782;47.264;11.330;2022-12-04T13:10:13;9.13;;;7.13;;
29546;SDS011;40782;47.264;11.330;2022-12-04T13:12:46;11.93;;;9.27;;
29546;SDS011;40782;47.264;11.330;2022-12-04T13:15:18;9.48;;;7.05;;
29546;SDS011;40782;47.264;11.330;2022-12-04T13:17:50;10.57;;;7.20;;
29546;SDS011;40782;47.264;11.330;2022-12-04T13:20:21;9.02;;;6.75;;
29546;SDS011;40782;47.264;11.330;2022-12-04T13:22:56;6.90;;;6.20;;
29546;SDS011;40782;47.264;11.330;2022-12-04T13:25:47;9.60;;;6.18;;
29546;SDS011;40782;47.264;11.330;2022-12-04T13:28:27;9.45;;;7.32;;
29546;SDS011;40782;47.264;11.330;2022-12-04T13:31:03;9.35;;;7.72;;
29546;SDS011;40782;47.264;11.330;2022-12-04T13:33:40;11.73;;;8.30;;
29546;SDS011;40782;47.264;11.330;2022-12-04T13:36:40;11.63;;;7.70;;
29546;SDS011;40782;47.264;11.330;2022-12-04T13:39:39;9.43;;;7.90;;
29546;SDS011;40782;47.264;11.330;2022-12-04T13:42:30;9.38;;;6.97;;
29546;SDS011;40782;47.264;11.330;2022-12-04T13:45:01;8.45;;;6.70;;
29546;SDS011;40782;47.264;11.330;2022-12-04T13:47:33;16.92;;;7.10;;
29546;SDS011;40782;47.264;11.330;2022-12-04T13:50:07;13.50;;;7.28;;
29546;SDS011;40782;47.264;11.330;2022-12-04T13:52:52;59.22;;;11.50;;
29546;SDS011;40782;47.264;11.330;2022-12-04T13:55:27;10.10;;;7.20;;
29546;SDS011;40782;47.264;11.330;2022-12-04T13:57:57;8.38;;;7.40;;
29546;SDS011;40782;47.264;11.330;2022-12-04T14:00:29;11.45;;;8.05;;
29546;SDS011;40782;47.264;11.330;2022-12-04T14:02:58;14.93;;;8.23;;
29546;SDS011;40782;47.264;11.330;2022-12-04T14:05:30;15.63;;;8.77;;
29546;SDS011;40782;47.264;11.330;2022-12-04T14:08:06;11.45;;;7.75;;
29546;SDS011;40782;47.264;11.330;2022-12-04T14:10:55;58.70;;;10.52;;
29546;SDS011;40782;47.264;11.330;2022-12-04T14:14:39;10.68;;;7.97;;
29546;SDS011;40782;47.264;11.330;2022-12-04T14:17:16;15.52;;;8.25;;
29546;SDS011;40782;47.264;11.330;2022-12-04T14:19:49;10.60;;;8.60;;
29546;SDS011;40782;47.264;11.330;2022-12-04T14:22:25;12.23;;;8.82;;
29546;SDS011;40782;47.264;11.330;2022-12-04T14:25:03;13.27;;;8.27;;
29546;SDS011;40782;47.264;11.330;2022-12-04T14:27:33;11.80;;;8.25;;
29546;SDS011;40782;47.264;11.330;2022-12-04T14:30:16;17.08;;;8.95;;
29546;SDS011;40782;47.264;11.330;2022-12-04T14:32:46;13.50;;;8.82;;
29546;SDS011;40782;47.264;11.330;2022-12-04T14:35:16;10.40;;;7.88;;
29546;SDS011;40782;47.264;11.330;2022-12-04T14:37:48;10.75;;;8.73;;
29546;SDS011;40782;47.264;11.330;2022-12-04T14:40:21;14.23;;;7.60;;
29546;SDS011;40782;47.264;11.330;2022-12-04T14:42:51;11.63;;;8.63;;
29546;SDS011;40782;47.264;11.330;2022-12-04T14:45:28;12.25;;;8.75;;
29546;SDS011;40782;47.264;11.330;2022-12-04T14:48:16;11.60;;;9.10;;
29546;SDS011;40782;47.264;11.330;2022-12-04T14:50:58;10.90;;;8.55;;